Monroe, Washington
Current Conditions -  °F | °C
As of 1:53 PM on Sunday 23 Nov 2014 (Local Time) from KPAE Reporting Station
Broken Clouds Broken Clouds  
Wind Chill: 53°   Ceiling: 3600
Heat Index: 53°   Visibility: 10mi
Dew Point: 40°   Wind: 5mph
Humidity: 61%   Direction: 300°WNW
Pressure: 30.15"   Gusts: NA
Location:  47.86°N, 121.97°W
Report Text: KPAE 232153Z 30004KT 10SM BKN036 12/04 A3015 RMK AO2 SLP210 T01170044 $
Loading
Personal Weather Stations






























Interactive Weather Map New forecast layout! Learn more

10-Day Weather Forecast

Advertisements
Track Severe Weather on mobile